sensor_id;sensor_type;location;lat;lon;timestamp;temperature;humidity
30371;DHT22;17164;48.590;11.410;2023-04-24T00:01:40;11.50;99.90
30371;DHT22;17164;48.590;11.410;2023-04-24T00:04:06;11.50;99.90
30371;DHT22;17164;48.590;11.410;2023-04-24T00:06:32;11.40;99.90
30371;DHT22;17164;48.590;11.410;2023-04-24T00:09:02;11.40;99.90
30371;DHT22;17164;48.590;11.410;2023-04-24T00:11:29;11.40;99.90
30371;DHT22;17164;48.590;11.410;2023-04-24T00:13:55;11.50;99.90
30371;DHT22;17164;48.590;11.410;2023-04-24T00:16:21;11.40;99.90
30371;DHT22;17164;48.590;11.410;2023-04-24T00:18:47;11.40;99.90
30371;DHT22;17164;48.590;11.410;2023-04-24T00:21:16;11.40;99.90
30371;DHT22;17164;48.590;11.410;2023-04-24T00:23:43;11.40;99.90
30371;DHT22;17164;48.590;11.410;2023-04-24T00:26:09;11.40;99.90
30371;DHT22;17164;48.590;11.410;2023-04-24T00:28:35;11.40;99.90
30371;DHT22;17164;48.590;11.410;2023-04-24T00:31:00;11.40;99.90
30371;DHT22;17164;48.590;11.410;2023-04-24T00:33:26;11.40;99.90
30371;DHT22;17164;48.590;11.410;2023-04-24T00:35:52;11.40;99.90
30371;DHT22;17164;48.590;11.410;2023-04-24T00:38:17;11.30;99.90
30371;DHT22;17164;48.590;11.410;2023-04-24T00:40:43;11.40;99.90
30371;DHT22;17164;48.590;11.410;2023-04-24T00:43:09;11.40;99.90
30371;DHT22;17164;48.590;11.410;2023-04-24T00:45:35;11.30;99.90
30371;DHT22;17164;48.590;11.410;2023-04-24T00:48:02;11.30;99.90
30371;DHT22;17164;48.590;11.410;2023-04-24T00:50:28;11.30;99.90
30371;DHT22;17164;48.590;11.410;2023-04-24T00:52:54;11.30;99.90
30371;DHT22;17164;48.590;11.410;2023-04-24T00:55:20;11.30;99.90
30371;DHT22;17164;48.590;11.410;2023-04-24T00:57:46;11.20;99.90
30371;DHT22;17164;48.590;11.410;2023-04-24T01:00:13;11.20;99.90
30371;DHT22;17164;48.590;11.410;2023-04-24T01:02:40;11.20;99.90
30371;DHT22;17164;48.590;11.410;2023-04-24T01:05:09;11.20;99.90
30371;DHT22;17164;48.590;11.410;2023-04-24T01:07:35;11.10;99.90
30371;DHT22;17164;48.590;11.410;2023-04-24T01:10:02;11.10;99.90
30371;DHT22;17164;48.590;11.410;2023-04-24T01:12:28;11.10;99.90
30371;DHT22;17164;48.590;11.410;2023-04-24T01:14:54;11.10;99.90
30371;DHT22;17164;48.590;11.410;2023-04-24T01:17:20;11.10;99.90
30371;DHT22;17164;48.590;11.410;2023-04-24T01:19:46;11.10;99.90
30371;DHT22;17164;48.590;11.410;2023-04-24T01:22:16;11.10;99.90
30371;DHT22;17164;48.590;11.410;2023-04-24T01:24:42;11.10;99.90
30371;DHT22;17164;48.590;11.410;2023-04-24T01:27:10;11.00;99.90
30371;DHT22;17164;48.590;11.410;2023-04-24T01:29:36;11.00;99.90
30371;DHT22;17164;48.590;11.410;2023-04-24T01:32:03;11.00;99.90
30371;DHT22;17164;48.590;11.410;2023-04-24T01:34:28;11.00;99.90
30371;DHT22;17164;48.590;11.410;2023-04-24T01:36:54;11.00;99.90
30371;DHT22;17164;48.590;11.410;2023-04-24T01:39:21;11.00;99.90
30371;DHT22;17164;48.590;11.410;2023-04-24T01:41:48;11.00;99.90
30371;DHT22;17164;48.590;11.410;2023-04-24T01:44:15;11.00;99.90
30371;DHT22;17164;48.590;11.410;2023-04-24T01:46:41;11.00;99.90
30371;DHT22;17164;48.590;11.410;2023-04-24T01:49:07;10.90;99.90
30371;DHT22;17164;48.590;11.410;2023-04-24T01:51:32;10.90;99.90
30371;DHT22;17164;48.590;11.410;2023-04-24T01:53:58;10.90;99.90
30371;DHT22;17164;48.590;11.410;2023-04-24T01:56:24;10.90;99.90
30371;DHT22;17164;48.590;11.410;2023-04-24T01:58:52;10.80;99.90
30371;DHT22;17164;48.590;11.410;2023-04-24T02:01:20;10.90;99.90
30371;DHT22;17164;48.590;11.410;2023-04-24T02:03:46;10.80;99.90
30371;DHT22;17164;48.590;11.410;2023-04-24T02:06:12;10.80;99.90
30371;DHT22;17164;48.590;11.410;2023-04-24T02:08:37;10.80;99.90
30371;DHT22;17164;48.590;11.410;2023-04-24T02:11:03;10.80;99.90
30371;DHT22;17164;48.590;11.410;2023-04-24T02:13:29;10.70;99.90
30371;DHT22;17164;48.590;11.410;2023-04-24T02:15:54;10.70;99.90
30371;DHT22;17164;48.590;11.410;2023-04-24T02:18:20;10.70;99.90
30371;DHT22;17164;48.590;11.410;2023-04-24T02:20:46;10.70;99.90
30371;DHT22;17164;48.590;11.410;2023-04-24T02:23:11;10.70;99.90
30371;DHT22;17164;48.590;11.410;2023-04-24T02:25:38;10.70;99.90
30371;DHT22;17164;48.590;11.410;2023-04-24T02:28:04;10.70;99.90
30371;DHT22;17164;48.590;11.410;2023-04-24T02:30:29;10.60;99.90
30371;DHT22;17164;48.590;11.410;2023-04-24T02:32:55;10.70;99.90
30371;DHT22;17164;48.590;11.410;2023-04-24T02:35:21;10.60;99.90
30371;DHT22;17164;48.590;11.410;2023-04-24T02:37:47;10.60;99.90
30371;DHT22;17164;48.590;11.410;2023-04-24T02:40:12;10.60;99.90
30371;DHT22;17164;48.590;11.410;2023-04-24T02:42:38;10.60;99.90
30371;DHT22;17164;48.590;11.410;2023-04-24T02:45:04;10.60;99.90
30371;DHT22;17164;48.590;11.410;2023-04-24T02:47:30;10.60;99.90
30371;DHT22;17164;48.590;11.410;2023-04-24T02:49:56;10.70;99.90
30371;DHT22;17164;48.590;11.410;2023-04-24T02:52:21;10.60;99.90
30371;DHT22;17164;48.590;11.410;2023-04-24T02:54:47;10.60;99.90
30371;DHT22;17164;48.590;11.410;2023-04-24T02:57:12;10.60;99.90
30371;DHT22;17164;48.590;11.410;2023-04-24T02:59:38;10.60;99.90
30371;DHT22;17164;48.590;11.410;2023-04-24T03:02:03;10.60;99.90
30371;DHT22;17164;48.590;11.410;2023-04-24T03:04:29;10.60;99.90
30371;DHT22;17164;48.590;11.410;2023-04-24T03:06:55;10.60;99.90
30371;DHT22;17164;48.590;11.410;2023-04-24T03:09:21;10.60;99.90
30371;DHT22;17164;48.590;11.410;2023-04-24T03:11:47;10.50;99.90
30371;DHT22;17164;48.590;11.410;2023-04-24T03:14:13;10.60;99.90
30371;DHT22;17164;48.590;11.410;2023-04-24T03:16:39;10.60;99.90
30371;DHT22;17164;48.590;11.410;2023-04-24T03:19:05;10.60;99.90
30371;DHT22;17164;48.590;11.410;2023-04-24T03:21:30;10.60;99.90
30371;DHT22;17164;48.590;11.410;2023-04-24T03:23:56;10.60;99.90
30371;DHT22;17164;48.590;11.410;2023-04-24T03:26:22;10.50;99.90
30371;DHT22;17164;48.590;11.410;2023-04-24T03:28:47;10.50;99.90
30371;DHT22;17164;48.590;11.410;2023-04-24T03:31:13;10.50;99.90
30371;DHT22;17164;48.590;11.410;2023-04-24T03:33:38;10.50;99.90
30371;DHT22;17164;48.590;11.410;2023-04-24T03:36:04;10.50;99.90
30371;DHT22;17164;48.590;11.410;2023-04-24T03:38:30;10.50;99.90
30371;DHT22;17164;48.590;11.410;2023-04-24T03:40:56;10.50;99.90
30371;DHT22;17164;48.590;11.410;2023-04-24T03:43:21;10.40;99.90
30371;DHT22;17164;48.590;11.410;2023-04-24T03:45:47;10.40;99.90
30371;DHT22;17164;48.590;11.410;2023-04-24T03:48:12;10.50;99.90
30371;DHT22;17164;48.590;11.410;2023-04-24T03:50:38;10.40;99.90
30371;DHT22;17164;48.590;11.410;2023-04-24T03:53:03;10.40;99.90
30371;DHT22;17164;48.590;11.410;2023-04-24T03:55:29;10.40;99.90
30371;DHT22;17164;48.590;11.410;2023-04-24T03:57:55;10.50;99.90
30371;DHT22;17164;48.590;11.410;2023-04-24T04:00:20;10.50;99.90
30371;DHT22;17164;48.590;11.410;2023-04-24T04:02:46;10.50;99.90
30371;DHT22;17164;48.590;11.410;2023-04-24T04:05:12;10.50;99.90
30371;DHT22;17164;48.590;11.410;2023-04-24T04:07:37;10.50;99.90
30371;DHT22;17164;48.590;11.410;2023-04-24T04:10:03;10.50;99.90
30371;DHT22;17164;48.590;11.410;2023-04-24T04:12:29;10.40;99.90
30371;DHT22;17164;48.590;11.410;2023-04-24T04:14:55;10.40;99.90
30371;DHT22;17164;48.590;11.410;2023-04-24T04:17:21;10.40;99.90
30371;DHT22;17164;48.590;11.410;2023-04-24T04:19:46;10.40;99.90
30371;DHT22;17164;48.590;11.410;2023-04-24T04:22:12;10.40;99.90
30371;DHT22;17164;48.590;11.410;2023-04-24T04:24:37;10.40;99.90
30371;DHT22;17164;48.590;11.410;2023-04-24T04:27:06;10.40;99.90
30371;DHT22;17164;48.590;11.410;2023-04-24T04:29:33;10.40;99.90
30371;DHT22;17164;48.590;11.410;2023-04-24T04:31:59;10.40;99.90
30371;DHT22;17164;48.590;11.410;2023-04-24T04:34:26;10.40;99.90
30371;DHT22;17164;48.590;11.410;2023-04-24T04:36:52;10.40;99.90
30371;DHT22;17164;48.590;11.410;2023-04-24T04:39:18;10.30;99.90
30371;DHT22;17164;48.590;11.410;2023-04-24T04:41:44;10.30;99.90
30371;DHT22;17164;48.590;11.410;2023-04-24T04:44:11;10.40;99.90
30371;DHT22;17164;48.590;11.410;2023-04-24T04:46:38;10.40;99.90
30371;DHT22;17164;48.590;11.410;2023-04-24T04:49:04;10.40;99.90
30371;DHT22;17164;48.590;11.410;2023-04-24T04:51:30;10.40;99.90
30371;DHT22;17164;48.590;11.410;2023-04-24T04:53:56;10.40;99.90
30371;DHT22;17164;48.590;11.410;2023-04-24T04:56:21;10.40;99.90
30371;DHT22;17164;48.590;11.410;2023-04-24T04:58:47;10.40;99.90
30371;DHT22;17164;48.590;11.410;2023-04-24T05:01:13;10.40;99.90
30371;DHT22;17164;48.590;11.410;2023-04-24T05:03:39;10.30;99.90
30371;DHT22;17164;48.590;11.410;2023-04-24T05:06:05;10.40;99.90
30371;DHT22;17164;48.590;11.410;2023-04-24T05:08:31;10.40;99.90
30371;DHT22;17164;48.590;11.410;2023-04-24T05:10:56;10.40;99.90
30371;DHT22;17164;48.590;11.410;2023-04-24T05:13:22;10.40;99.90
30371;DHT22;17164;48.590;11.410;2023-04-24T05:15:47;10.40;99.90
30371;DHT22;17164;48.590;11.410;2023-04-24T05:18:13;10.40;99.90
30371;DHT22;17164;48.590;11.410;2023-04-24T05:20:39;10.40;99.90
30371;DHT22;17164;48.590;11.410;2023-04-24T05:23:04;10.50;99.90
30371;DHT22;17164;48.590;11.410;2023-04-24T05:25:30;10.50;99.90
30371;DHT22;17164;48.590;11.410;2023-04-24T05:28:00;10.50;99.90
30371;DHT22;17164;48.590;11.410;2023-04-24T05:30:26;10.50;99.90
30371;DHT22;17164;48.590;11.410;2023-04-24T05:32:52;10.50;99.90
30371;DHT22;17164;48.590;11.410;2023-04-24T05:35:17;10.50;99.90
30371;DHT22;17164;48.590;11.410;2023-04-24T05:37:44;10.50;99.90
30371;DHT22;17164;48.590;11.410;2023-04-24T05:40:10;10.50;99.90
30371;DHT22;17164;48.590;11.410;2023-04-24T05:42:36;10.60;99.90
30371;DHT22;17164;48.590;11.410;2023-04-24T05:45:02;10.60;99.90
30371;DHT22;17164;48.590;11.410;2023-04-24T05:47:28;10.70;99.90
30371;DHT22;17164;48.590;11.410;2023-04-24T05:49:53;10.70;99.90
30371;DHT22;17164;48.590;11.410;2023-04-24T05:52:19;10.70;99.90
30371;DHT22;17164;48.590;11.410;2023-04-24T05:54:45;10.80;99.90
30371;DHT22;17164;48.590;11.410;2023-04-24T05:57:10;10.90;99.90
30371;DHT22;17164;48.590;11.410;2023-04-24T05:59:37;10.90;99.90
30371;DHT22;17164;48.590;11.410;2023-04-24T06:02:04;11.00;99.90
30371;DHT22;17164;48.590;11.410;2023-04-24T06:04:29;11.10;99.90
30371;DHT22;17164;48.590;11.410;2023-04-24T06:06:55;11.10;99.90
30371;DHT22;17164;48.590;11.410;2023-04-24T06:09:24;11.10;99.90
30371;DHT22;17164;48.590;11.410;2023-04-24T06:11:50;11.20;99.90
30371;DHT22;17164;48.590;11.410;2023-04-24T06:14:18;11.20;99.90
30371;DHT22;17164;48.590;11.410;2023-04-24T06:16:44;11.30;99.90
30371;DHT22;17164;48.590;11.410;2023-04-24T06:19:09;11.30;99.90
30371;DHT22;17164;48.590;11.410;2023-04-24T06:21:35;11.30;99.90
30371;DHT22;17164;48.590;11.410;2023-04-24T06:24:00;11.30;99.90
30371;DHT22;17164;48.590;11.410;2023-04-24T06:26:26;11.40;99.90
30371;DHT22;17164;48.590;11.410;2023-04-24T06:28:52;11.40;99.90
30371;DHT22;17164;48.590;11.410;2023-04-24T06:31:19;11.40;99.90
30371;DHT22;17164;48.590;11.410;2023-04-24T06:33:45;11.40;99.90
30371;DHT22;17164;48.590;11.410;2023-04-24T06:36:12;11.40;99.90
30371;DHT22;17164;48.590;11.410;2023-04-24T06:38:37;11.30;99.90
30371;DHT22;17164;48.590;11.410;2023-04-24T06:41:03;11.40;99.90
30371;DHT22;17164;48.590;11.410;2023-04-24T06:43:31;11.40;99.90
30371;DHT22;17164;48.590;11.410;2023-04-24T06:45:57;11.40;99.90
30371;DHT22;17164;48.590;11.410;2023-04-24T06:48:24;11.50;99.90
30371;DHT22;17164;48.590;11.410;2023-04-24T06:50:50;11.60;99.90
30371;DHT22;17164;48.590;11.410;2023-04-24T06:53:16;11.60;99.90
30371;DHT22;17164;48.590;11.410;2023-04-24T06:55:42;11.70;99.90
30371;DHT22;17164;48.590;11.410;2023-04-24T06:58:08;11.80;99.90
30371;DHT22;17164;48.590;11.410;2023-04-24T07:00:34;11.90;99.90
30371;DHT22;17164;48.590;11.410;2023-04-24T07:03:00;11.90;99.90
30371;DHT22;17164;48.590;11.410;2023-04-24T07:05:26;12.10;99.90
30371;DHT22;17164;48.590;11.410;2023-04-24T07:07:51;12.00;99.90
30371;DHT22;17164;48.590;11.410;2023-04-24T07:10:17;12.10;99.90
30371;DHT22;17164;48.590;11.410;2023-04-24T07:12:43;12.10;99.90
30371;DHT22;17164;48.590;11.410;2023-04-24T07:15:09;12.10;99.90
30371;DHT22;17164;48.590;11.410;2023-04-24T07:17:35;12.20;99.90
30371;DHT22;17164;48.590;11.410;2023-04-24T07:20:04;12.20;99.90
30371;DHT22;17164;48.590;11.410;2023-04-24T07:22:30;12.10;99.90
30371;DHT22;17164;48.590;11.410;2023-04-24T07:24:55;12.10;99.90
30371;DHT22;17164;48.590;11.410;2023-04-24T07:27:21;12.00;99.90
30371;DHT22;17164;48.590;11.410;2023-04-24T07:29:46;12.00;99.90
30371;DHT22;17164;48.590;11.410;2023-04-24T07:32:12;11.90;99.90
30371;DHT22;17164;48.590;11.410;2023-04-24T07:34:38;11.90;99.90
30371;DHT22;17164;48.590;11.410;2023-04-24T07:37:03;11.90;99.90
30371;DHT22;17164;48.590;11.410;2023-04-24T07:39:29;11.90;99.90
30371;DHT22;17164;48.590;11.410;2023-04-24T07:41:55;11.80;99.90
30371;DHT22;17164;48.590;11.410;2023-04-24T07:44:20;11.80;99.90
30371;DHT22;17164;48.590;11.410;2023-04-24T07:46:46;11.80;99.90
30371;DHT22;17164;48.590;11.410;2023-04-24T07:49:12;11.80;99.90
30371;DHT22;17164;48.590;11.410;2023-04-24T07:51:38;11.80;99.90
30371;DHT22;17164;48.590;11.410;2023-04-24T07:54:05;11.80;99.90
30371;DHT22;17164;48.590;11.410;2023-04-24T07:56:34;11.60;99.90
30371;DHT22;17164;48.590;11.410;2023-04-24T07:59:00;11.20;99.90
30371;DHT22;17164;48.590;11.410;2023-04-24T08:01:26;10.80;99.90
30371;DHT22;17164;48.590;11.410;2023-04-24T08:03:52;10.50;99.90
30371;DHT22;17164;48.590;11.410;2023-04-24T08:06:18;10.20;99.90
30371;DHT22;17164;48.590;11.410;2023-04-24T08:08:43;10.00;99.90
30371;DHT22;17164;48.590;11.410;2023-04-24T08:11:09;9.90;99.90
30371;DHT22;17164;48.590;11.410;2023-04-24T08:13:35;9.80;99.90
30371;DHT22;17164;48.590;11.410;2023-04-24T08:16:00;9.80;99.90
30371;DHT22;17164;48.590;11.410;2023-04-24T08:18:26;9.70;99.90
30371;DHT22;17164;48.590;11.410;2023-04-24T08:20:52;9.70;99.90
30371;DHT22;17164;48.590;11.410;2023-04-24T08:23:18;9.70;99.90
30371;DHT22;17164;48.590;11.410;2023-04-24T08:25:43;9.70;99.90
30371;DHT22;17164;48.590;11.410;2023-04-24T08:28:09;9.80;99.90
30371;DHT22;17164;48.590;11.410;2023-04-24T08:30:36;9.90;99.90
30371;DHT22;17164;48.590;11.410;2023-04-24T08:33:02;10.00;99.90
30371;DHT22;17164;48.590;11.410;2023-04-24T08:35:27;10.00;99.90
30371;DHT22;17164;48.590;11.410;2023-04-24T08:37:53;10.20;99.90
30371;DHT22;17164;48.590;11.410;2023-04-24T08:40:24;10.40;99.90
30371;DHT22;17164;48.590;11.410;2023-04-24T08:42:54;10.60;99.90
30371;DHT22;17164;48.590;11.410;2023-04-24T08:45:21;10.90;99.90
30371;DHT22;17164;48.590;11.410;2023-04-24T08:47:47;11.20;99.90
30371;DHT22;17164;48.590;11.410;2023-04-24T08:50:14;11.40;99.90
30371;DHT22;17164;48.590;11.410;2023-04-24T08:52:41;11.80;99.90
30371;DHT22;17164;48.590;11.410;2023-04-24T08:55:07;12.00;99.90
30371;DHT22;17164;48.590;11.410;2023-04-24T08:57:33;12.30;99.90
30371;DHT22;17164;48.590;11.410;2023-04-24T09:00:01;12.30;99.90
30371;DHT22;17164;48.590;11.410;2023-04-24T09:02:27;12.30;99.90
30371;DHT22;17164;48.590;11.410;2023-04-24T09:04:55;12.30;99.90
30371;DHT22;17164;48.590;11.410;2023-04-24T09:07:24;12.30;99.90
30371;DHT22;17164;48.590;11.410;2023-04-24T09:09:51;12.40;99.90
30371;DHT22;17164;48.590;11.410;2023-04-24T09:12:18;12.50;99.90
30371;DHT22;17164;48.590;11.410;2023-04-24T09:14:45;12.50;99.90
30371;DHT22;17164;48.590;11.410;2023-04-24T09:17:11;12.60;99.90
30371;DHT22;17164;48.590;11.410;2023-04-24T09:19:37;12.60;99.90
30371;DHT22;17164;48.590;11.410;2023-04-24T09:22:07;12.60;99.90
30371;DHT22;17164;48.590;11.410;2023-04-24T09:24:34;12.70;99.90
30371;DHT22;17164;48.590;11.410;2023-04-24T09:27:01;12.70;99.90
30371;DHT22;17164;48.590;11.410;2023-04-24T09:29:29;12.70;99.90
30371;DHT22;17164;48.590;11.410;2023-04-24T09:31:55;12.70;99.90
30371;DHT22;17164;48.590;11.410;2023-04-24T09:34:26;12.70;99.90
30371;DHT22;17164;48.590;11.410;2023-04-24T09:36:52;12.80;99.90
30371;DHT22;17164;48.590;11.410;2023-04-24T09:39:18;12.80;99.90
30371;DHT22;17164;48.590;11.410;2023-04-24T09:41:56;12.90;99.90
30371;DHT22;17164;48.590;11.410;2023-04-24T09:44:25;12.90;99.90
30371;DHT22;17164;48.590;11.410;2023-04-24T09:47:00;12.80;99.90
30371;DHT22;17164;48.590;11.410;2023-04-24T09:49:27;12.70;99.90
30371;DHT22;17164;48.590;11.410;2023-04-24T09:52:19;12.70;99.90
30371;DHT22;17164;48.590;11.410;2023-04-24T09:54:52;12.70;99.90
30371;DHT22;17164;48.590;11.410;2023-04-24T09:57:19;12.80;99.90
30371;DHT22;17164;48.590;11.410;2023-04-24T09:59:46;13.00;99.90
30371;DHT22;17164;48.590;11.410;2023-04-24T10:02:19;13.20;99.90
30371;DHT22;17164;48.590;11.410;2023-04-24T10:04:54;13.40;99.90
30371;DHT22;17164;48.590;11.410;2023-04-24T10:07:21;13.40;99.90
30371;DHT22;17164;48.590;11.410;2023-04-24T10:09:46;13.40;99.90
30371;DHT22;17164;48.590;11.410;2023-04-24T10:12:13;13.20;99.90
30371;DHT22;17164;48.590;11.410;2023-04-24T10:14:40;13.10;99.90
30371;DHT22;17164;48.590;11.410;2023-04-24T10:17:06;13.10;99.90
30371;DHT22;17164;48.590;11.410;2023-04-24T10:19:33;13.10;99.90
30371;DHT22;17164;48.590;11.410;2023-04-24T10:21:59;13.30;99.90
30371;DHT22;17164;48.590;11.410;2023-04-24T10:24:25;13.40;99.90
30371;DHT22;17164;48.590;11.410;2023-04-24T10:26:51;13.50;99.90
30371;DHT22;17164;48.590;11.410;2023-04-24T10:29:18;13.70;99.90
30371;DHT22;17164;48.590;11.410;2023-04-24T10:31:44;13.70;99.90
30371;DHT22;17164;48.590;11.410;2023-04-24T10:34:15;13.70;99.90
30371;DHT22;17164;48.590;11.410;2023-04-24T10:36:45;13.60;99.90
30371;DHT22;17164;48.590;11.410;2023-04-24T10:39:13;13.30;99.90
30371;DHT22;17164;48.590;11.410;2023-04-24T10:41:40;13.00;99.90
30371;DHT22;17164;48.590;11.410;2023-04-24T10:44:16;12.50;99.90
30371;DHT22;17164;48.590;11.410;2023-04-24T10:46:46;12.20;99.90
30371;DHT22;17164;48.590;11.410;2023-04-24T10:49:28;12.00;99.90
30371;DHT22;17164;48.590;11.410;2023-04-24T10:51:54;11.90;99.90
30371;DHT22;17164;48.590;11.410;2023-04-24T10:54:33;11.80;99.90
30371;DHT22;17164;48.590;11.410;2023-04-24T10:59:48;11.90;99.90
30371;DHT22;17164;48.590;11.410;2023-04-24T11:02:15;12.10;99.90
30371;DHT22;17164;48.590;11.410;2023-04-24T11:04:41;12.30;99.90
30371;DHT22;17164;48.590;11.410;2023-04-24T11:07:09;12.60;99.90
30371;DHT22;17164;48.590;11.410;2023-04-24T11:09:36;12.90;99.90
30371;DHT22;17164;48.590;11.410;2023-04-24T11:12:06;13.10;99.90
30371;DHT22;17164;48.590;11.410;2023-04-24T11:17:35;13.10;99.90
30371;DHT22;17164;48.590;11.410;2023-04-24T11:20:10;13.00;99.90
30371;DHT22;17164;48.590;11.410;2023-04-24T11:22:37;12.90;99.90
30371;DHT22;17164;48.590;11.410;2023-04-24T11:25:04;13.00;99.90
30371;DHT22;17164;48.590;11.410;2023-04-24T11:27:44;12.90;99.90
30371;DHT22;17164;48.590;11.410;2023-04-24T11:30:10;12.80;99.90
30371;DHT22;17164;48.590;11.410;2023-04-24T11:32:41;12.70;99.90
30371;DHT22;17164;48.590;11.410;2023-04-24T11:35:18;12.70;99.90
30371;DHT22;17164;48.590;11.410;2023-04-24T11:37:45;12.70;99.90
30371;DHT22;17164;48.590;11.410;2023-04-24T11:40:13;12.70;99.90
30371;DHT22;17164;48.590;11.410;2023-04-24T11:42:45;12.80;99.90
30371;DHT22;17164;48.590;11.410;2023-04-24T11:45:21;13.00;99.90
30371;DHT22;17164;48.590;11.410;2023-04-24T11:47:46;13.10;99.90
30371;DHT22;17164;48.590;11.410;2023-04-24T11:50:14;13.20;99.90
30371;DHT22;17164;48.590;11.410;2023-04-24T11:52:42;13.30;99.90
30371;DHT22;17164;48.590;11.410;2023-04-24T11:57:53;13.90;99.90
30371;DHT22;17164;48.590;11.410;2023-04-24T12:00:25;14.30;99.90
30371;DHT22;17164;48.590;11.410;2023-04-24T12:03:02;14.40;99.90
30371;DHT22;17164;48.590;11.410;2023-04-24T12:05:29;14.60;99.90
30371;DHT22;17164;48.590;11.410;2023-04-24T12:07:57;14.70;99.90
30371;DHT22;17164;48.590;11.410;2023-04-24T12:10:24;14.90;99.90
30371;DHT22;17164;48.590;11.410;2023-04-24T12:12:50;15.00;99.90
30371;DHT22;17164;48.590;11.410;2023-04-24T12:15:18;15.20;99.90
30371;DHT22;17164;48.590;11.410;2023-04-24T12:17:44;15.40;99.80
30371;DHT22;17164;48.590;11.410;2023-04-24T12:20:11;15.60;99.90
30371;DHT22;17164;48.590;11.410;2023-04-24T12:22:49;15.80;99.90
30371;DHT22;17164;48.590;11.410;2023-04-24T12:25:19;15.90;96.10
30371;DHT22;17164;48.590;11.410;2023-04-24T12:27:46;15.70;95.00
30371;DHT22;17164;48.590;11.410;2023-04-24T12:30:16;15.50;95.30
30371;DHT22;17164;48.590;11.410;2023-04-24T12:32:47;15.20;95.10
30371;DHT22;17164;48.590;11.410;2023-04-24T12:35:14;15.00;97.60
30371;DHT22;17164;48.590;11.410;2023-04-24T12:37:44;14.80;96.40
30371;DHT22;17164;48.590;11.410;2023-04-24T12:40:11;14.60;94.90
30371;DHT22;17164;48.590;11.410;2023-04-24T12:42:57;14.50;95.00
30371;DHT22;17164;48.590;11.410;2023-04-24T12:45:23;14.40;96.20
30371;DHT22;17164;48.590;11.410;2023-04-24T12:47:50;14.40;94.20
30371;DHT22;17164;48.590;11.410;2023-04-24T12:50:16;14.40;96.80
30371;DHT22;17164;48.590;11.410;2023-04-24T12:52:42;14.60;96.00
30371;DHT22;17164;48.590;11.410;2023-04-24T12:55:08;14.70;94.40
30371;DHT22;17164;48.590;11.410;2023-04-24T12:57:35;14.70;95.10
30371;DHT22;17164;48.590;11.410;2023-04-24T13:00:03;14.50;95.10
30371;DHT22;17164;48.590;11.410;2023-04-24T13:02:30;14.30;94.50
30371;DHT22;17164;48.590;11.410;2023-04-24T13:04:59;14.30;96.40
30371;DHT22;17164;48.590;11.410;2023-04-24T13:07:25;14.40;96.60
30371;DHT22;17164;48.590;11.410;2023-04-24T13:09:52;14.70;95.20
30371;DHT22;17164;48.590;11.410;2023-04-24T13:12:18;14.90;94.80
30371;DHT22;17164;48.590;11.410;2023-04-24T13:14:44;14.90;93.20
30371;DHT22;17164;48.590;11.410;2023-04-24T13:17:10;14.80;93.20
30371;DHT22;17164;48.590;11.410;2023-04-24T13:19:38;14.50;93.60
30371;DHT22;17164;48.590;11.410;2023-04-24T13:22:04;14.30;91.20
30371;DHT22;17164;48.590;11.410;2023-04-24T13:24:30;14.00;92.10
30371;DHT22;17164;48.590;11.410;2023-04-24T13:26:56;13.80;92.10
30371;DHT22;17164;48.590;11.410;2023-04-24T13:29:22;13.70;91.50
30371;DHT22;17164;48.590;11.410;2023-04-24T13:31:50;13.60;92.20
30371;DHT22;17164;48.590;11.410;2023-04-24T13:34:16;13.70;93.00
30371;DHT22;17164;48.590;11.410;2023-04-24T13:36:42;13.80;92.70
30371;DHT22;17164;48.590;11.410;2023-04-24T13:39:08;14.20;92.40
30371;DHT22;17164;48.590;11.410;2023-04-24T13:41:34;14.60;91.50
30371;DHT22;17164;48.590;11.410;2023-04-24T13:44:00;14.70;91.90
30371;DHT22;17164;48.590;11.410;2023-04-24T13:46:26;14.80;91.30
30371;DHT22;17164;48.590;11.410;2023-04-24T13:48:52;14.70;88.60
30371;DHT22;17164;48.590;11.410;2023-04-24T13:51:17;14.60;88.60
30371;DHT22;17164;48.590;11.410;2023-04-24T13:53:43;14.30;87.60
30371;DHT22;17164;48.590;11.410;2023-04-24T13:56:09;14.10;86.00
30371;DHT22;17164;48.590;11.410;2023-04-24T13:58:35;14.00;85.60
30371;DHT22;17164;48.590;11.410;2023-04-24T14:01:04;14.00;87.90
30371;DHT22;17164;48.590;11.410;2023-04-24T14:03:30;13.90;90.10
30371;DHT22;17164;48.590;11.410;2023-04-24T14:05:56;14.00;90.40
30371;DHT22;17164;48.590;11.410;2023-04-24T14:08:21;14.10;91.90
30371;DHT22;17164;48.590;11.410;2023-04-24T14:10:47;14.20;90.80
30371;DHT22;17164;48.590;11.410;2023-04-24T14:13:13;14.20;90.50
30371;DHT22;17164;48.590;11.410;2023-04-24T14:15:38;14.10;90.80
30371;DHT22;17164;48.590;11.410;2023-04-24T14:18:04;14.00;90.60
30371;DHT22;17164;48.590;11.410;2023-04-24T14:20:30;13.90;89.70
30371;DHT22;17164;48.590;11.410;2023-04-24T14:22:56;13.80;90.10
30371;DHT22;17164;48.590;11.410;2023-04-24T14:25:24;13.80;90.50
30371;DHT22;17164;48.590;11.410;2023-04-24T14:27:50;13.70;91.20
30371;DHT22;17164;48.590;11.410;2023-04-24T14:30:16;13.70;92.00
30371;DHT22;17164;48.590;11.410;2023-04-24T14:32:42;13.60;91.60
30371;DHT22;17164;48.590;11.410;2023-04-24T14:35:07;13.60;91.80
30371;DHT22;17164;48.590;11.410;2023-04-24T14:37:33;13.50;90.90
30371;DHT22;17164;48.590;11.410;2023-04-24T14:39:59;13.50;90.90
30371;DHT22;17164;48.590;11.410;2023-04-24T14:42:25;13.50;91.60
30371;DHT22;17164;48.590;11.410;2023-04-24T14:44:51;13.50;92.20
30371;DHT22;17164;48.590;11.410;2023-04-24T14:47:16;13.70;92.80
30371;DHT22;17164;48.590;11.410;2023-04-24T14:49:47;13.80;90.80
30371;DHT22;17164;48.590;11.410;2023-04-24T14:52:13;14.00;93.10
30371;DHT22;17164;48.590;11.410;2023-04-24T14:54:39;14.20;90.90
30371;DHT22;17164;48.590;11.410;2023-04-24T14:57:04;14.40;91.30
30371;DHT22;17164;48.590;11.410;2023-04-24T14:59:30;14.70;89.30
30371;DHT22;17164;48.590;11.410;2023-04-24T15:01:57;14.90;90.70
30371;DHT22;17164;48.590;11.410;2023-04-24T15:04:26;15.00;88.70
30371;DHT22;17164;48.590;11.410;2023-04-24T15:06:52;14.90;85.10
30371;DHT22;17164;48.590;11.410;2023-04-24T15:09:22;14.70;85.30
30371;DHT22;17164;48.590;11.410;2023-04-24T15:11:49;14.50;87.30
30371;DHT22;17164;48.590;11.410;2023-04-24T15:14:16;14.20;87.20
30371;DHT22;17164;48.590;11.410;2023-04-24T15:16:41;14.00;88.70
30371;DHT22;17164;48.590;11.410;2023-04-24T15:19:07;13.80;88.90
30371;DHT22;17164;48.590;11.410;2023-04-24T15:21:35;13.60;89.80
30371;DHT22;17164;48.590;11.410;2023-04-24T15:24:01;13.50;90.40